Terminal Aerodrome Forecast
Issued by NWS St Louis, MO

Home | Current Version | Previous Version | Text Only | Print | Product List | Glossary On
Versions: 1 2 3 4 5 6 7 8 9 10 11 12 13 14 15 16 17 18 19 20 21
873
FTUS43 KLSX 250315 AAA
TAFCOU
TAF AMD
KCOU 250315Z 2503/2524 35005KT P6SM SKC
     FM250500 VRB04KT P6SM VCTS BKN080CB
     FM250900 36005KT P6SM BKN060
     FM252000 03008KT P6SM SCT200=

USA.gov is the U.S. government's official web portal to all federal, state and local government web resources and services.